Latest Weather Observations for Fort Denison

IDN60801

Issued at 9:34 am EDT Tuesday 23 December 2014 (issued every 30 minutes, with the page automatically refreshed every 10 minutes)

About weather observations | Map of weather stations | Latest weather observations for NSW | Other Formats
Station Details ID: 066022 Name: FORT DENISON Lat: -33.86 Lon: 151.23 Height: 5.0 m
Data from the previous 72 hours. | See also: Recent months for locations in New South Wales
Date/Time
EDT
Temp
°C
App
Temp
°C
Dew
Point
Rel
Hum
%
Delta-T
°C
Wind Press
QNH
hPa
Press
MSL
hPa
Rain
since 9 am
mm
Dir
 
Spd
km/h
Gust
km/h
Spd
kts
Gust
kts
23/09:30am - - - - - NNW 7 11 4 6 - - -
23/09:00am - - - - - NW 11 19 6 10 - - -
23/08:30am - - - - - NNE 15 24 8 13 - - -
23/08:00am - - - - - NNE 22 35 12 19 - - -
23/07:30am - - - - - NE 22 33 12 18 - - -
23/07:00am - - - - - NE 20 32 11 17 - - -
23/06:30am - - - - - NE 17 28 9 15 - - -
23/06:00am - - - - - NE 15 30 8 16 - - -
23/05:30am - - - - - NE 17 26 9 14 - - -
23/05:00am - - - - - NE 15 24 8 13 - - -
23/04:30am - - - - - NE 13 19 7 10 - - -
23/04:00am - - - - - ENE 15 24 8 13 - - -
23/03:30am - - - - - NE 20 32 11 17 - - -
23/03:00am - - - - - NE 15 22 8 12 - - -
23/02:30am - - - - - NNE 17 26 9 14 - - -
23/02:00am - - - - - NNE 20 30 11 16 - - -
23/01:30am - - - - - NNE 20 32 11 17 - - -
23/01:00am - - - - - NE 24 39 13 21 - - -
23/12:30am - - - - - NE 26 41 14 22 - - -
23/12:00am - - - - - NE 24 39 13 21 - - -
 
Date/Time
EDT
Temp
°C
App
Temp
°C
Dew
Point
Rel
Hum
%
Delta-T
°C
Wind Press
QNH
hPa
Press
MSL
hPa
Rain
since 9 am
mm
Dir
 
Spd
km/h
Gust
km/h
Spd
kts
Gust
kts
22/11:30pm - - - - - NE 24 39 13 21 - - -
22/11:06pm - - - - - NE 28 46 15 25 - - -
22/11:00pm - - - - - NE 26 41 14 22 - - -
22/10:30pm - - - - - NE 28 46 15 25 - - -
22/10:24pm - - - - - NE 28 46 15 25 - - -
22/10:00pm - - - - - NE 28 41 15 22 - - -
22/09:49pm - - - - - NE 28 48 15 26 - - -
22/09:30pm - - - - - NE 26 46 14 25 - - -
22/09:14pm - - - - - NE 28 48 15 26 - - -
22/09:00pm - - - - - NE 24 41 13 22 - - -
22/08:30pm - - - - - NE 22 39 12 21 - - -
22/08:00pm - - - - - NE 28 48 15 26 - - -
22/07:30pm - - - - - NNE 24 39 13 21 - - -
22/07:00pm - - - - - NNE 22 37 12 20 - - -
22/06:30pm - - - - - NE 24 39 13 21 - - -
22/06:00pm - - - - - NNE 28 48 15 26 - - -
22/05:44pm - - - - - NNE 28 50 15 27 - - -
22/05:30pm - - - - - NNE 32 44 17 24 - - -
22/05:01pm - - - - - NNE 30 50 16 27 - - -
22/05:00pm - - - - - NNE 30 46 16 25 - - -
22/04:30pm - - - - - NE 28 46 15 25 - - -
22/04:00pm - - - - - NE 33 52 18 28 - - -
22/03:30pm - - - - - NE 28 46 15 25 - - -
22/03:00pm - - - - - NE 33 57 18 31 - - -
22/02:30pm - - - - - NE 30 48 16 26 - - -
22/02:09pm - - - - - NE 28 46 15 25 - - -
22/02:00pm - - - - - NE 26 41 14 22 - - -
22/01:38pm - - - - - NE 28 46 15 25 - - -
22/01:30pm - - - - - NE 26 43 14 23 - - -
22/01:00pm - - - - - ENE 22 35 12 19 - - -
22/12:30pm - - - - - ENE 26 35 14 19 - - -
22/12:00pm - - - - - ENE 26 32 14 17 - - -
22/11:30am - - - - - E 24 28 13 15 - - -
22/11:00am - - - - - E 19 22 10 12 - - -
22/10:30am - - - - - ENE 20 24 11 13 - - -
22/10:00am - - - - - ENE 20 24 11 13 - - -
22/09:30am - - - - - ENE 19 22 10 12 - - -
22/09:00am - - - - - ENE 15 19 8 10 - - -
22/08:30am - - - - - N 6 9 3 5 - - -
22/08:00am - - - - - NNE 11 17 6 9 - - -
22/07:30am - - - - - NNE 9 17 5 9 - - -
22/07:00am - - - - - NNE 9 15 5 8 - - -
22/06:30am - - - - - NW 4 6 2 3 - - -
22/06:00am - - - - - NE 9 17 5 9 - - -
22/05:30am - - - - - NE 13 19 7 10 - - -
22/05:00am - - - - - NNE 9 17 5 9 - - -
22/04:30am - - - - - ENE 9 13 5 7 - - -
22/04:00am - - - - - NE 9 15 5 8 - - -
22/03:30am - - - - - ENE 11 13 6 7 - - -
22/03:00am - - - - - ENE 11 15 6 8 - - -
22/02:30am - - - - - NE 6 11 3 6 - - -
22/02:00am - - - - - NE 7 15 4 8 - - -
22/01:30am - - - - - NE 7 13 4 7 - - -
22/01:00am - - - - - NNE 11 19 6 10 - - -
22/12:30am - - - - - NNE 17 28 9 15 - - -
22/12:00am - - - - - NE 20 32 11 17 - - -
 
Date/Time
EDT
Temp
°C
App
Temp
°C
Dew
Point
Rel
Hum
%
Delta-T
°C
Wind Press
QNH
hPa
Press
MSL
hPa
Rain
since 9 am
mm
Dir
 
Spd
km/h
Gust
km/h
Spd
kts
Gust
kts
21/11:30pm - - - - - NE 24 35 13 19 - - -
21/11:00pm - - - - - NE 22 33 12 18 - - -
21/10:30pm - - - - - NE 20 32 11 17 - - -
21/10:00pm - - - - - NE 22 35 12 19 - - -
21/09:30pm - - - - - NE 24 39 13 21 - - -
21/09:00pm - - - - - NE 24 35 13 19 - - -
21/08:30pm - - - - - NE 24 39 13 21 - - -
21/08:00pm - - - - - NE 26 41 14 22 - - -
21/07:30pm - - - - - NE 22 35 12 19 - - -
21/07:00pm - - - - - NE 20 33 11 18 - - -
21/06:30pm - - - - - NE 26 41 14 22 - - -
21/06:00pm - - - - - NE 30 44 16 24 - - -
21/05:34pm - - - - - NE 28 46 15 25 - - -
21/05:30pm - - - - - NE 26 39 14 21 - - -
21/05:00pm - - - - - NE 26 41 14 22 - - -
21/04:30pm - - - - - NE 26 43 14 23 - - -
21/04:00pm - - - - - NE 24 39 13 21 - - -
21/03:30pm - - - - - ENE 30 43 16 23 - - -
21/03:00pm - - - - - E 32 39 17 21 - - -
21/02:30pm - - - - - E 28 35 15 19 - - -
21/02:00pm - - - - - E 28 35 15 19 - - -
21/01:30pm - - - - - E 22 30 12 16 - - -
21/01:00pm - - - - - E 24 33 13 18 - - -
21/12:30pm - - - - - E 20 26 11 14 - - -
21/12:00pm - - - - - ENE 20 28 11 15 - - -
21/11:30am - - - - - E 20 30 11 16 - - -
21/11:00am - - - - - ENE 19 26 10 14 - - -
21/10:30am - - - - - ENE 20 26 11 14 - - -
21/10:00am - - - - - ENE 15 24 8 13 - - -
21/09:30am - - - - - ESE 6 9 3 5 - - -
21/09:00am - - - - - W 6 7 3 4 - - -
21/08:30am - - - - - W 9 11 5 6 - - -
21/08:00am - - - - - W 11 13 6 7 - - -
21/07:30am - - - - - WNW 11 15 6 8 - - -
21/07:00am - - - - - WNW 11 13 6 7 - - -
21/06:30am - - - - - W 9 13 5 7 - - -
21/06:00am - - - - - W 11 13 6 7 - - -
21/05:30am - - - - - W 13 15 7 8 - - -
21/05:00am - - - - - W 9 11 5 6 - - -
21/04:30am - - - - - NW 4 4 2 2 - - -
21/04:00am - - - - - WNW 4 4 2 2 - - -
21/03:30am - - - - - WNW 7 9 4 5 - - -
21/03:00am - - - - - W 7 9 4 5 - - -
21/02:30am - - - - - NW 4 6 2 3 - - -
21/02:00am - - - - - W 7 9 4 5 - - -
21/01:30am - - - - - WNW 7 9 4 5 - - -
21/01:00am - - - - - WNW 4 7 2 4 - - -
21/12:30am - - - - - NW 4 6 2 3 - - -
21/12:00am - - - - - NE 6 9 3 5 - - -
 
Date/Time
EDT
Temp
°C
App
Temp
°C
Dew
Point
Rel
Hum
%
Delta-T
°C
Wind Press
QNH
hPa
Press
MSL
hPa
Rain
since 9 am
mm
Dir
 
Spd
km/h
Gust
km/h
Spd
kts
Gust
kts
20/11:30pm - - - - - ENE 11 15 6 8 - - -
20/11:00pm - - - - - ENE 13 20 7 11 - - -
20/10:30pm - - - - - ENE 17 22 9 12 - - -
20/10:00pm - - - - - ENE 17 22 9 12 - - -
20/09:30pm - - - - - ENE 15 20 8 11 - - -
20/09:00pm - - - - - ENE 13 19 7 10 - - -
20/08:30pm - - - - - ENE 20 24 11 13 - - -
20/08:00pm - - - - - ENE 19 24 10 13 - - -
20/07:30pm - - - - - ENE 19 24 10 13 - - -
20/07:00pm - - - - - E 22 28 12 15 - - -
20/06:30pm - - - - - ENE 24 28 13 15 - - -
20/06:00pm - - - - - ENE 22 28 12 15 - - -
20/05:30pm - - - - - E 20 24 11 13 - - -
20/05:00pm - - - - - E 22 28 12 15 - - -
20/04:30pm - - - - - E 22 28 12 15 - - -
20/04:00pm - - - - - E 22 28 12 15 - - -
20/03:30pm - - - - - E 20 26 11 14 - - -
20/03:00pm - - - - - E 20 24 11 13 - - -
20/02:30pm - - - - - E 22 30 12 16 - - -
20/02:00pm - - - - - E 22 28 12 15 - - -
20/01:30pm - - - - - ENE 20 24 11 13 - - -
20/01:00pm - - - - - ENE 17 20 9 11 - - -
20/12:30pm - - - - - ENE 20 26 11 14 - - -
20/12:00pm - - - - - E 15 20 8 11 - - -
20/11:30am - - - - - E 13 19 7 10 - - -
20/11:00am - - - - - E 11 15 6 8 - - -
20/10:30am - - - - - E 13 17 7 9 - - -
20/10:00am - - - - - E 13 19 7 10 - - -

Other Formats:

Comma delimited format used in spreadsheet applications
http://www.bom.gov.au/fwo/IDN60801/IDN60801.94769.axf

JavaScript Object Notation format (JSON) in row-major order
http://www.bom.gov.au/fwo/IDN60801/IDN60801.94769.json